sensor_id;sensor_type;location;lat;lon;timestamp;P1;durP1;ratioP1;P2;durP2;ratioP2
17133;SDS011;8682;52.120;5.252;2022-10-19T00:00:22;1308.27;;;892.57;;
17133;SDS011;8682;52.120;5.252;2022-10-19T00:02:49;1687.23;;;919.77;;
17133;SDS011;8682;52.120;5.252;2022-10-19T00:05:17;1275.40;;;941.40;;
17133;SDS011;8682;52.120;5.252;2022-10-19T00:07:45;1429.10;;;986.80;;
17133;SDS011;8682;52.120;5.252;2022-10-19T00:10:12;1600.80;;;999.90;;
17133;SDS011;8682;52.120;5.252;2022-10-19T00:12:39;1640.77;;;999.90;;
17133;SDS011;8682;52.120;5.252;2022-10-19T00:15:07;1620.53;;;999.90;;
17133;SDS011;8682;52.120;5.252;2022-10-19T00:17:34;1552.33;;;999.90;;
17133;SDS011;8682;52.120;5.252;2022-10-19T00:20:01;1406.10;;;996.27;;
17133;SDS011;8682;52.120;5.252;2022-10-19T00:22:28;1824.00;;;999.90;;
17133;SDS011;8682;52.120;5.252;2022-10-19T00:24:57;1979.57;;;999.90;;
17133;SDS011;8682;52.120;5.252;2022-10-19T00:27:24;1784.43;;;999.90;;
17133;SDS011;8682;52.120;5.252;2022-10-19T00:29:51;1527.13;;;999.90;;
17133;SDS011;8682;52.120;5.252;2022-10-19T00:32:18;1917.63;;;999.90;;
17133;SDS011;8682;52.120;5.252;2022-10-19T00:34:45;1650.47;;;999.90;;
17133;SDS011;8682;52.120;5.252;2022-10-19T00:37:12;1749.67;;;999.90;;
17133;SDS011;8682;52.120;5.252;2022-10-19T00:39:39;1909.27;;;990.10;;
17133;SDS011;8682;52.120;5.252;2022-10-19T00:42:10;1526.03;;;999.90;;
17133;SDS011;8682;52.120;5.252;2022-10-19T00:44:58;1718.93;;;999.90;;
17133;SDS011;8682;52.120;5.252;2022-10-19T00:47:25;1973.03;;;999.90;;
17133;SDS011;8682;52.120;5.252;2022-10-19T00:49:52;1999.90;;;999.90;;
17133;SDS011;8682;52.120;5.252;2022-10-19T00:52:20;1777.70;;;999.90;;
17133;SDS011;8682;52.120;5.252;2022-10-19T00:54:48;1594.73;;;999.90;;
17133;SDS011;8682;52.120;5.252;2022-10-19T00:57:17;1666.57;;;999.90;;
17133;SDS011;8682;52.120;5.252;2022-10-19T00:59:44;1977.30;;;999.90;;
17133;SDS011;8682;52.120;5.252;2022-10-19T01:02:12;1617.67;;;999.90;;
17133;SDS011;8682;52.120;5.252;2022-10-19T01:04:41;1892.73;;;999.90;;
17133;SDS011;8682;52.120;5.252;2022-10-19T01:07:10;1607.87;;;999.90;;
17133;SDS011;8682;52.120;5.252;2022-10-19T01:09:38;1769.13;;;999.90;;
17133;SDS011;8682;52.120;5.252;2022-10-19T01:12:06;1701.80;;;999.90;;
17133;SDS011;8682;52.120;5.252;2022-10-19T01:14:39;1696.87;;;999.90;;
17133;SDS011;8682;52.120;5.252;2022-10-19T01:17:14;1812.33;;;999.90;;
17133;SDS011;8682;52.120;5.252;2022-10-19T01:22:47;1892.13;;;999.90;;
17133;SDS011;8682;52.120;5.252;2022-10-19T01:25:20;1804.10;;;999.90;;
17133;SDS011;8682;52.120;5.252;2022-10-19T01:27:59;1954.67;;;968.63;;
17133;SDS011;8682;52.120;5.252;2022-10-19T01:30:36;1854.30;;;999.90;;
17133;SDS011;8682;52.120;5.252;2022-10-19T01:33:14;1913.27;;;968.20;;
17133;SDS011;8682;52.120;5.252;2022-10-19T01:35:44;1892.80;;;999.90;;
17133;SDS011;8682;52.120;5.252;2022-10-19T01:38:14;1602.63;;;999.90;;
17133;SDS011;8682;52.120;5.252;2022-10-19T01:40:44;1540.13;;;999.90;;
17133;SDS011;8682;52.120;5.252;2022-10-19T01:43:19;1812.07;;;999.90;;
17133;SDS011;8682;52.120;5.252;2022-10-19T01:45:49;1714.17;;;999.90;;
17133;SDS011;8682;52.120;5.252;2022-10-19T01:48:19;1466.47;;;996.07;;
17133;SDS011;8682;52.120;5.252;2022-10-19T01:50:48;1701.23;;;999.90;;
17133;SDS011;8682;52.120;5.252;2022-10-19T01:53:16;1646.27;;;994.27;;
17133;SDS011;8682;52.120;5.252;2022-10-19T01:55:44;1672.00;;;999.90;;
17133;SDS011;8682;52.120;5.252;2022-10-19T01:58:15;1796.63;;;902.90;;
17133;SDS011;8682;52.120;5.252;2022-10-19T02:00:44;1703.07;;;999.90;;
17133;SDS011;8682;52.120;5.252;2022-10-19T02:03:13;1707.97;;;999.90;;
17133;SDS011;8682;52.120;5.252;2022-10-19T02:05:41;1666.07;;;999.90;;
17133;SDS011;8682;52.120;5.252;2022-10-19T02:08:11;1857.33;;;999.90;;
17133;SDS011;8682;52.120;5.252;2022-10-19T02:10:38;1890.43;;;999.90;;
17133;SDS011;8682;52.120;5.252;2022-10-19T02:13:07;1784.37;;;999.90;;
17133;SDS011;8682;52.120;5.252;2022-10-19T02:15:35;1999.90;;;999.90;;
17133;SDS011;8682;52.120;5.252;2022-10-19T02:18:04;1999.90;;;999.90;;
17133;SDS011;8682;52.120;5.252;2022-10-19T02:20:33;1999.90;;;999.90;;
17133;SDS011;8682;52.120;5.252;2022-10-19T02:23:02;1999.90;;;999.90;;
17133;SDS011;8682;52.120;5.252;2022-10-19T02:25:29;1894.73;;;999.90;;
17133;SDS011;8682;52.120;5.252;2022-10-19T02:27:56;1708.67;;;999.90;;
17133;SDS011;8682;52.120;5.252;2022-10-19T02:30:23;1851.03;;;728.77;;
17133;SDS011;8682;52.120;5.252;2022-10-19T02:32:50;1999.90;;;910.53;;
17133;SDS011;8682;52.120;5.252;2022-10-19T02:35:18;1999.90;;;999.90;;
17133;SDS011;8682;52.120;5.252;2022-10-19T02:37:46;1931.47;;;929.60;;
17133;SDS011;8682;52.120;5.252;2022-10-19T02:40:13;1993.03;;;999.90;;
17133;SDS011;8682;52.120;5.252;2022-10-19T02:42:41;1949.43;;;999.90;;
17133;SDS011;8682;52.120;5.252;2022-10-19T02:45:11;1846.33;;;999.90;;
17133;SDS011;8682;52.120;5.252;2022-10-19T02:47:41;1707.97;;;999.90;;
17133;SDS011;8682;52.120;5.252;2022-10-19T02:50:09;1992.40;;;864.63;;
17133;SDS011;8682;52.120;5.252;2022-10-19T02:52:37;1985.97;;;999.90;;
17133;SDS011;8682;52.120;5.252;2022-10-19T02:55:06;1999.90;;;999.90;;
17133;SDS011;8682;52.120;5.252;2022-10-19T02:57:33;1939.27;;;999.90;;
17133;SDS011;8682;52.120;5.252;2022-10-19T03:00:00;1905.77;;;999.90;;
17133;SDS011;8682;52.120;5.252;2022-10-19T03:02:28;1999.90;;;999.90;;
17133;SDS011;8682;52.120;5.252;2022-10-19T03:04:55;1999.90;;;999.90;;
17133;SDS011;8682;52.120;5.252;2022-10-19T03:07:22;1859.03;;;999.90;;
17133;SDS011;8682;52.120;5.252;2022-10-19T03:09:49;1904.77;;;865.93;;
17133;SDS011;8682;52.120;5.252;2022-10-19T03:12:18;1913.57;;;837.20;;
17133;SDS011;8682;52.120;5.252;2022-10-19T03:14:45;1694.90;;;669.50;;
17133;SDS011;8682;52.120;5.252;2022-10-19T03:17:12;1932.23;;;862.07;;
17133;SDS011;8682;52.120;5.252;2022-10-19T03:19:39;1869.13;;;999.90;;
17133;SDS011;8682;52.120;5.252;2022-10-19T03:22:06;1939.60;;;999.90;;
17133;SDS011;8682;52.120;5.252;2022-10-19T03:24:33;1839.57;;;903.67;;
17133;SDS011;8682;52.120;5.252;2022-10-19T03:27:01;1977.70;;;999.90;;
17133;SDS011;8682;52.120;5.252;2022-10-19T03:29:29;1695.43;;;757.77;;
17133;SDS011;8682;52.120;5.252;2022-10-19T03:31:56;1602.63;;;727.63;;
17133;SDS011;8682;52.120;5.252;2022-10-19T03:34:23;1917.13;;;852.00;;
17133;SDS011;8682;52.120;5.252;2022-10-19T03:36:50;1904.97;;;856.40;;
17133;SDS011;8682;52.120;5.252;2022-10-19T03:39:17;1999.90;;;907.07;;
17133;SDS011;8682;52.120;5.252;2022-10-19T03:41:45;1997.70;;;999.90;;
17133;SDS011;8682;52.120;5.252;2022-10-19T03:44:12;1811.53;;;970.53;;
17133;SDS011;8682;52.120;5.252;2022-10-19T03:46:40;1970.37;;;999.90;;
17133;SDS011;8682;52.120;5.252;2022-10-19T03:49:08;1714.70;;;620.27;;
17133;SDS011;8682;52.120;5.252;2022-10-19T03:51:35;1952.97;;;999.90;;
17133;SDS011;8682;52.120;5.252;2022-10-19T03:54:03;1830.83;;;999.90;;
17133;SDS011;8682;52.120;5.252;2022-10-19T03:56:31;1825.90;;;818.23;;
17133;SDS011;8682;52.120;5.252;2022-10-19T03:58:59;1775.07;;;789.70;;
17133;SDS011;8682;52.120;5.252;2022-10-19T04:01:27;1823.53;;;942.47;;
17133;SDS011;8682;52.120;5.252;2022-10-19T04:03:56;1814.30;;;956.30;;
17133;SDS011;8682;52.120;5.252;2022-10-19T04:06:24;1794.90;;;802.87;;
17133;SDS011;8682;52.120;5.252;2022-10-19T04:08:52;1664.97;;;790.20;;
17133;SDS011;8682;52.120;5.252;2022-10-19T04:11:20;1809.90;;;849.97;;
17133;SDS011;8682;52.120;5.252;2022-10-19T04:13:47;1597.80;;;999.90;;
17133;SDS011;8682;52.120;5.252;2022-10-19T04:16:15;1825.57;;;954.27;;
17133;SDS011;8682;52.120;5.252;2022-10-19T04:18:42;1828.27;;;941.57;;
17133;SDS011;8682;52.120;5.252;2022-10-19T04:21:18;1911.43;;;974.50;;
17133;SDS011;8682;52.120;5.252;2022-10-19T04:23:45;1590.57;;;999.90;;
17133;SDS011;8682;52.120;5.252;2022-10-19T04:26:12;1984.50;;;995.47;;
17133;SDS011;8682;52.120;5.252;2022-10-19T04:28:39;1755.47;;;821.90;;
17133;SDS011;8682;52.120;5.252;2022-10-19T04:31:07;1855.10;;;848.97;;
17133;SDS011;8682;52.120;5.252;2022-10-19T04:33:34;1701.70;;;894.10;;
17133;SDS011;8682;52.120;5.252;2022-10-19T04:36:02;1720.97;;;999.90;;
17133;SDS011;8682;52.120;5.252;2022-10-19T04:38:30;1633.60;;;999.90;;
17133;SDS011;8682;52.120;5.252;2022-10-19T04:40:59;1447.03;;;703.23;;
17133;SDS011;8682;52.120;5.252;2022-10-19T04:43:27;1740.27;;;949.17;;
17133;SDS011;8682;52.120;5.252;2022-10-19T04:45:54;1450.73;;;594.87;;
17133;SDS011;8682;52.120;5.252;2022-10-19T04:48:21;1786.60;;;848.37;;
17133;SDS011;8682;52.120;5.252;2022-10-19T04:50:48;1733.67;;;870.83;;
17133;SDS011;8682;52.120;5.252;2022-10-19T04:53:20;1827.23;;;914.47;;
17133;SDS011;8682;52.120;5.252;2022-10-19T04:55:49;1668.93;;;801.20;;
17133;SDS011;8682;52.120;5.252;2022-10-19T04:58:16;1758.30;;;999.90;;
17133;SDS011;8682;52.120;5.252;2022-10-19T05:00:43;1663.37;;;719.57;;
17133;SDS011;8682;52.120;5.252;2022-10-19T05:03:10;1151.67;;;455.20;;
17133;SDS011;8682;52.120;5.252;2022-10-19T05:05:37;1527.83;;;658.67;;
17133;SDS011;8682;52.120;5.252;2022-10-19T05:08:04;1622.90;;;994.53;;
17133;SDS011;8682;52.120;5.252;2022-10-19T05:10:32;1825.33;;;967.47;;
17133;SDS011;8682;52.120;5.252;2022-10-19T05:13:00;1657.30;;;878.23;;
17133;SDS011;8682;52.120;5.252;2022-10-19T05:15:27;1658.77;;;999.90;;
17133;SDS011;8682;52.120;5.252;2022-10-19T05:17:55;1940.23;;;999.90;;
17133;SDS011;8682;52.120;5.252;2022-10-19T05:20:22;1671.17;;;999.90;;
17133;SDS011;8682;52.120;5.252;2022-10-19T05:22:49;1646.53;;;999.90;;
17133;SDS011;8682;52.120;5.252;2022-10-19T05:25:16;1810.50;;;999.90;;
17133;SDS011;8682;52.120;5.252;2022-10-19T05:27:44;1911.40;;;964.30;;
17133;SDS011;8682;52.120;5.252;2022-10-19T05:30:12;1756.13;;;999.90;;
17133;SDS011;8682;52.120;5.252;2022-10-19T05:32:39;1887.17;;;999.90;;
17133;SDS011;8682;52.120;5.252;2022-10-19T05:35:06;1798.77;;;730.13;;
17133;SDS011;8682;52.120;5.252;2022-10-19T05:37:34;1699.10;;;740.03;;
17133;SDS011;8682;52.120;5.252;2022-10-19T05:40:01;1959.63;;;896.47;;
17133;SDS011;8682;52.120;5.252;2022-10-19T05:42:28;1680.80;;;810.77;;
17133;SDS011;8682;52.120;5.252;2022-10-19T05:44:55;1519.27;;;677.77;;
17133;SDS011;8682;52.120;5.252;2022-10-19T05:47:24;1912.83;;;960.27;;
17133;SDS011;8682;52.120;5.252;2022-10-19T05:49:51;1557.47;;;739.70;;
17133;SDS011;8682;52.120;5.252;2022-10-19T05:52:18;1920.90;;;906.13;;
17133;SDS011;8682;52.120;5.252;2022-10-19T05:54:45;1880.03;;;955.03;;
17133;SDS011;8682;52.120;5.252;2022-10-19T05:57:12;1485.30;;;677.07;;
17133;SDS011;8682;52.120;5.252;2022-10-19T05:59:39;1738.47;;;876.80;;
17133;SDS011;8682;52.120;5.252;2022-10-19T06:02:08;1754.87;;;999.90;;
17133;SDS011;8682;52.120;5.252;2022-10-19T06:04:38;1903.17;;;999.90;;
17133;SDS011;8682;52.120;5.252;2022-10-19T06:07:05;1605.43;;;847.47;;
17133;SDS011;8682;52.120;5.252;2022-10-19T06:09:32;1624.97;;;999.90;;
17133;SDS011;8682;52.120;5.252;2022-10-19T06:12:00;1670.23;;;999.90;;
17133;SDS011;8682;52.120;5.252;2022-10-19T06:14:28;1881.53;;;999.90;;
17133;SDS011;8682;52.120;5.252;2022-10-19T06:16:55;1990.83;;;998.20;;
17133;SDS011;8682;52.120;5.252;2022-10-19T06:19:22;1996.27;;;934.83;;
17133;SDS011;8682;52.120;5.252;2022-10-19T06:21:51;1530.43;;;999.90;;
17133;SDS011;8682;52.120;5.252;2022-10-19T06:24:18;1428.93;;;763.57;;
17133;SDS011;8682;52.120;5.252;2022-10-19T06:26:45;1549.97;;;796.67;;
17133;SDS011;8682;52.120;5.252;2022-10-19T06:29:12;1475.10;;;677.93;;
17133;SDS011;8682;52.120;5.252;2022-10-19T06:31:39;1386.67;;;684.63;;
17133;SDS011;8682;52.120;5.252;2022-10-19T06:34:06;1563.37;;;999.70;;
17133;SDS011;8682;52.120;5.252;2022-10-19T06:36:34;1430.80;;;999.90;;
17133;SDS011;8682;52.120;5.252;2022-10-19T06:39:02;1770.60;;;943.47;;
17133;SDS011;8682;52.120;5.252;2022-10-19T06:41:30;1590.93;;;999.90;;
17133;SDS011;8682;52.120;5.252;2022-10-19T06:43:58;1578.77;;;999.47;;
17133;SDS011;8682;52.120;5.252;2022-10-19T06:46:25;1667.63;;;999.90;;
17133;SDS011;8682;52.120;5.252;2022-10-19T06:48:53;1518.63;;;999.90;;
17133;SDS011;8682;52.120;5.252;2022-10-19T06:51:20;1590.80;;;999.90;;
17133;SDS011;8682;52.120;5.252;2022-10-19T06:53:49;1687.43;;;821.83;;
17133;SDS011;8682;52.120;5.252;2022-10-19T06:56:18;1653.50;;;948.87;;
17133;SDS011;8682;52.120;5.252;2022-10-19T06:58:45;1618.37;;;836.60;;
17133;SDS011;8682;52.120;5.252;2022-10-19T07:01:14;1579.53;;;988.67;;
17133;SDS011;8682;52.120;5.252;2022-10-19T07:03:41;1427.10;;;689.47;;
17133;SDS011;8682;52.120;5.252;2022-10-19T07:06:08;1477.60;;;944.97;;
17133;SDS011;8682;52.120;5.252;2022-10-19T07:08:36;1271.60;;;834.37;;
17133;SDS011;8682;52.120;5.252;2022-10-19T07:11:04;1150.70;;;865.57;;
17133;SDS011;8682;52.120;5.252;2022-10-19T07:13:33;1330.73;;;923.93;;
17133;SDS011;8682;52.120;5.252;2022-10-19T07:16:01;1363.63;;;739.33;;
17133;SDS011;8682;52.120;5.252;2022-10-19T07:18:29;1300.80;;;830.10;;
17133;SDS011;8682;52.120;5.252;2022-10-19T07:20:57;1324.87;;;943.83;;
17133;SDS011;8682;52.120;5.252;2022-10-19T07:23:24;1197.43;;;864.20;;
17133;SDS011;8682;52.120;5.252;2022-10-19T07:25:52;1133.87;;;858.57;;
17133;SDS011;8682;52.120;5.252;2022-10-19T07:28:24;1192.10;;;891.60;;
17133;SDS011;8682;52.120;5.252;2022-10-19T07:30:53;1338.43;;;937.83;;
17133;SDS011;8682;52.120;5.252;2022-10-19T07:33:20;1327.03;;;912.57;;
17133;SDS011;8682;52.120;5.252;2022-10-19T07:35:47;1024.90;;;787.13;;
17133;SDS011;8682;52.120;5.252;2022-10-19T07:38:14;1171.33;;;826.40;;
17133;SDS011;8682;52.120;5.252;2022-10-19T07:40:41;1172.93;;;756.47;;
17133;SDS011;8682;52.120;5.252;2022-10-19T07:43:08;1255.40;;;842.73;;
17133;SDS011;8682;52.120;5.252;2022-10-19T07:45:35;1170.03;;;861.70;;
17133;SDS011;8682;52.120;5.252;2022-10-19T07:48:04;1258.70;;;881.87;;
17133;SDS011;8682;52.120;5.252;2022-10-19T07:50:31;1311.37;;;844.13;;
17133;SDS011;8682;52.120;5.252;2022-10-19T07:52:59;1435.80;;;922.50;;
17133;SDS011;8682;52.120;5.252;2022-10-19T07:55:27;1393.77;;;911.03;;
17133;SDS011;8682;52.120;5.252;2022-10-19T07:57:54;1497.53;;;868.03;;
17133;SDS011;8682;52.120;5.252;2022-10-19T08:00:25;1151.63;;;851.17;;
17133;SDS011;8682;52.120;5.252;2022-10-19T08:02:53;1222.73;;;781.63;;
17133;SDS011;8682;52.120;5.252;2022-10-19T08:05:22;1112.87;;;796.83;;
17133;SDS011;8682;52.120;5.252;2022-10-19T08:07:49;994.70;;;790.47;;
17133;SDS011;8682;52.120;5.252;2022-10-19T08:10:16;933.73;;;736.43;;
17133;SDS011;8682;52.120;5.252;2022-10-19T08:12:43;761.77;;;660.00;;
17133;SDS011;8682;52.120;5.252;2022-10-19T08:15:11;719.10;;;565.57;;
17133;SDS011;8682;52.120;5.252;2022-10-19T08:17:38;548.70;;;489.73;;
17133;SDS011;8682;52.120;5.252;2022-10-19T08:20:05;371.60;;;326.73;;
17133;SDS011;8682;52.120;5.252;2022-10-19T08:22:34;304.97;;;240.10;;
17133;SDS011;8682;52.120;5.252;2022-10-19T08:25:02;231.87;;;177.73;;
17133;SDS011;8682;52.120;5.252;2022-10-19T08:27:29;199.37;;;159.73;;
17133;SDS011;8682;52.120;5.252;2022-10-19T08:29:56;215.03;;;193.67;;
17133;SDS011;8682;52.120;5.252;2022-10-19T08:32:23;173.17;;;155.10;;
17133;SDS011;8682;52.120;5.252;2022-10-19T08:34:50;143.70;;;124.87;;
17133;SDS011;8682;52.120;5.252;2022-10-19T08:37:17;156.60;;;138.90;;
17133;SDS011;8682;52.120;5.252;2022-10-19T08:39:46;131.63;;;116.10;;
17133;SDS011;8682;52.120;5.252;2022-10-19T08:42:14;143.63;;;128.37;;
17133;SDS011;8682;52.120;5.252;2022-10-19T08:44:48;123.30;;;109.70;;
17133;SDS011;8682;52.120;5.252;2022-10-19T08:47:19;138.93;;;124.73;;
17133;SDS011;8682;52.120;5.252;2022-10-19T08:49:51;128.23;;;110.27;;
17133;SDS011;8682;52.120;5.252;2022-10-19T08:52:19;190.03;;;166.27;;
17133;SDS011;8682;52.120;5.252;2022-10-19T08:54:50;163.33;;;145.77;;
17133;SDS011;8682;52.120;5.252;2022-10-19T08:57:22;174.90;;;156.27;;
17133;SDS011;8682;52.120;5.252;2022-10-19T08:59:51;231.63;;;209.07;;
17133;SDS011;8682;52.120;5.252;2022-10-19T09:02:21;248.10;;;224.37;;
17133;SDS011;8682;52.120;5.252;2022-10-19T09:04:56;266.27;;;240.27;;
17133;SDS011;8682;52.120;5.252;2022-10-19T09:07:25;332.57;;;274.90;;
17133;SDS011;8682;52.120;5.252;2022-10-19T09:09:56;258.47;;;232.57;;
17133;SDS011;8682;52.120;5.252;2022-10-19T09:12:29;295.83;;;266.73;;
17133;SDS011;8682;52.120;5.252;2022-10-19T09:14:58;344.43;;;311.93;;
17133;SDS011;8682;52.120;5.252;2022-10-19T09:17:26;313.30;;;283.57;;
17133;SDS011;8682;52.120;5.252;2022-10-19T09:19:53;329.43;;;297.10;;
17133;SDS011;8682;52.120;5.252;2022-10-19T09:22:22;324.03;;;292.00;;
17133;SDS011;8682;52.120;5.252;2022-10-19T09:24:53;636.63;;;484.80;;
17133;SDS011;8682;52.120;5.252;2022-10-19T09:27:23;291.47;;;261.30;;
17133;SDS011;8682;52.120;5.252;2022-10-19T09:29:52;385.70;;;349.57;;
17133;SDS011;8682;52.120;5.252;2022-10-19T09:32:21;338.70;;;305.13;;
17133;SDS011;8682;52.120;5.252;2022-10-19T09:34:50;448.30;;;405.73;;
17133;SDS011;8682;52.120;5.252;2022-10-19T09:37:18;552.00;;;430.47;;
17133;SDS011;8682;52.120;5.252;2022-10-19T09:39:46;426.77;;;385.20;;
17133;SDS011;8682;52.120;5.252;2022-10-19T09:42:16;434.63;;;394.57;;
17133;SDS011;8682;52.120;5.252;2022-10-19T09:44:48;534.20;;;482.33;;
17133;SDS011;8682;52.120;5.252;2022-10-19T09:50:08;1036.67;;;811.87;;
17133;SDS011;8682;52.120;5.252;2022-10-19T09:52:35;1025.73;;;826.93;;
17133;SDS011;8682;52.120;5.252;2022-10-19T09:55:04;913.00;;;791.30;;
17133;SDS011;8682;52.120;5.252;2022-10-19T09:57:32;1113.97;;;824.63;;
17133;SDS011;8682;52.120;5.252;2022-10-19T10:00:00;1340.60;;;967.53;;
17133;SDS011;8682;52.120;5.252;2022-10-19T10:02:28;1413.20;;;958.73;;
17133;SDS011;8682;52.120;5.252;2022-10-19T10:04:57;1230.50;;;919.30;;
17133;SDS011;8682;52.120;5.252;2022-10-19T10:07:31;1324.63;;;959.07;;
17133;SDS011;8682;52.120;5.252;2022-10-19T10:09:59;1538.00;;;999.90;;
17133;SDS011;8682;52.120;5.252;2022-10-19T10:12:26;1795.33;;;999.90;;
17133;SDS011;8682;52.120;5.252;2022-10-19T10:14:54;1731.53;;;999.90;;
17133;SDS011;8682;52.120;5.252;2022-10-19T10:17:24;1999.90;;;999.90;;
17133;SDS011;8682;52.120;5.252;2022-10-19T10:20:02;1999.90;;;999.90;;
17133;SDS011;8682;52.120;5.252;2022-10-19T10:22:30;1513.70;;;986.07;;
17133;SDS011;8682;52.120;5.252;2022-10-19T10:24:58;1440.20;;;698.80;;
17133;SDS011;8682;52.120;5.252;2022-10-19T10:27:29;1876.83;;;909.93;;
17133;SDS011;8682;52.120;5.252;2022-10-19T10:29:57;1783.97;;;962.77;;
17133;SDS011;8682;52.120;5.252;2022-10-19T10:32:26;1302.87;;;617.03;;
17133;SDS011;8682;52.120;5.252;2022-10-19T10:34:57;1631.63;;;753.17;;
17133;SDS011;8682;52.120;5.252;2022-10-19T10:37:27;1308.63;;;400.10;;
17133;SDS011;8682;52.120;5.252;2022-10-19T10:39:56;1618.60;;;605.40;;
17133;SDS011;8682;52.120;5.252;2022-10-19T10:42:26;1315.87;;;543.43;;
17133;SDS011;8682;52.120;5.252;2022-10-19T10:44:54;1999.90;;;999.90;;
17133;SDS011;8682;52.120;5.252;2022-10-19T10:47:21;1772.10;;;850.43;;
17133;SDS011;8682;52.120;5.252;2022-10-19T10:49:56;1702.37;;;949.27;;
17133;SDS011;8682;52.120;5.252;2022-10-19T10:52:25;1999.90;;;999.90;;
17133;SDS011;8682;52.120;5.252;2022-10-19T10:54:58;1439.13;;;683.83;;
17133;SDS011;8682;52.120;5.252;2022-10-19T10:57:27;1548.10;;;999.90;;
17133;SDS011;8682;52.120;5.252;2022-10-19T10:59:56;1571.23;;;969.23;;
17133;SDS011;8682;52.120;5.252;2022-10-19T11:02:31;1777.30;;;953.23;;
17133;SDS011;8682;52.120;5.252;2022-10-19T11:05:03;1671.73;;;997.70;;
17133;SDS011;8682;52.120;5.252;2022-10-19T11:07:32;1309.80;;;937.60;;
17133;SDS011;8682;52.120;5.252;2022-10-19T11:10:02;1218.00;;;999.90;;
17133;SDS011;8682;52.120;5.252;2022-10-19T11:12:35;982.20;;;878.93;;
17133;SDS011;8682;52.120;5.252;2022-10-19T11:15:05;1136.50;;;931.13;;
17133;SDS011;8682;52.120;5.252;2022-10-19T11:17:37;1009.07;;;905.60;;
17133;SDS011;8682;52.120;5.252;2022-10-19T11:20:09;1063.23;;;951.57;;
17133;SDS011;8682;52.120;5.252;2022-10-19T11:22:41;1148.33;;;868.10;;
17133;SDS011;8682;52.120;5.252;2022-10-19T11:25:20;999.27;;;892.33;;
17133;SDS011;8682;52.120;5.252;2022-10-19T11:27:51;972.47;;;871.37;;
17133;SDS011;8682;52.120;5.252;2022-10-19T11:30:22;1005.50;;;872.33;;
17133;SDS011;8682;52.120;5.252;2022-10-19T11:32:56;1243.53;;;944.83;;
17133;SDS011;8682;52.120;5.252;2022-10-19T11:35:31;1096.73;;;961.73;;
17133;SDS011;8682;52.120;5.252;2022-10-19T11:38:03;1004.57;;;899.10;;
17133;SDS011;8682;52.120;5.252;2022-10-19T11:40:34;1175.13;;;841.80;;
17133;SDS011;8682;52.120;5.252;2022-10-19T11:43:04;1265.33;;;933.17;;
17133;SDS011;8682;52.120;5.252;2022-10-19T11:45:35;1353.70;;;944.77;;
17133;SDS011;8682;52.120;5.252;2022-10-19T11:48:09;1320.10;;;786.90;;
17133;SDS011;8682;52.120;5.252;2022-10-19T11:50:46;1408.90;;;816.67;;
17133;SDS011;8682;52.120;5.252;2022-10-19T11:53:15;1518.37;;;845.83;;
17133;SDS011;8682;52.120;5.252;2022-10-19T11:55:45;1387.40;;;745.57;;
17133;SDS011;8682;52.120;5.252;2022-10-19T11:58:25;1283.53;;;717.30;;
17133;SDS011;8682;52.120;5.252;2022-10-19T12:00:55;1614.07;;;911.07;;
17133;SDS011;8682;52.120;5.252;2022-10-19T12:03:28;1494.43;;;829.30;;
17133;SDS011;8682;52.120;5.252;2022-10-19T12:06:02;1442.93;;;907.20;;
17133;SDS011;8682;52.120;5.252;2022-10-19T12:08:35;1564.27;;;958.23;;
17133;SDS011;8682;52.120;5.252;2022-10-19T12:11:10;1253.27;;;948.73;;
17133;SDS011;8682;52.120;5.252;2022-10-19T12:13:45;1126.73;;;671.27;;
17133;SDS011;8682;52.120;5.252;2022-10-19T12:16:14;1148.60;;;625.50;;
17133;SDS011;8682;52.120;5.252;2022-10-19T12:18:43;1416.63;;;929.03;;
17133;SDS011;8682;52.120;5.252;2022-10-19T12:21:16;1302.60;;;932.13;;
17133;SDS011;8682;52.120;5.252;2022-10-19T12:23:45;1114.00;;;632.93;;
17133;SDS011;8682;52.120;5.252;2022-10-19T12:26:14;966.80;;;436.57;;
17133;SDS011;8682;52.120;5.252;2022-10-19T12:28:42;831.77;;;488.87;;
17133;SDS011;8682;52.120;5.252;2022-10-19T12:31:10;1195.10;;;848.00;;
17133;SDS011;8682;52.120;5.252;2022-10-19T12:33:40;1427.97;;;904.23;;
17133;SDS011;8682;52.120;5.252;2022-10-19T12:36:13;1078.97;;;806.50;;
17133;SDS011;8682;52.120;5.252;2022-10-19T12:38:46;1568.97;;;970.37;;
17133;SDS011;8682;52.120;5.252;2022-10-19T12:41:18;896.93;;;469.60;;
17133;SDS011;8682;52.120;5.252;2022-10-19T12:43:53;999.67;;;485.60;;
17133;SDS011;8682;52.120;5.252;2022-10-19T12:46:24;1256.60;;;647.37;;
17133;SDS011;8682;52.120;5.252;2022-10-19T12:51:43;1189.57;;;738.37;;
17133;SDS011;8682;52.120;5.252;2022-10-19T12:54:12;1268.93;;;741.70;;
17133;SDS011;8682;52.120;5.252;2022-10-19T12:56:45;1165.33;;;818.03;;
17133;SDS011;8682;52.120;5.252;2022-10-19T12:59:18;1206.53;;;883.50;;
17133;SDS011;8682;52.120;5.252;2022-10-19T13:01:48;1045.13;;;872.97;;
17133;SDS011;8682;52.120;5.252;2022-10-19T13:04:17;1205.33;;;781.20;;
17133;SDS011;8682;52.120;5.252;2022-10-19T13:06:45;1008.73;;;546.23;;
17133;SDS011;8682;52.120;5.252;2022-10-19T13:09:25;1275.83;;;774.70;;
17133;SDS011;8682;52.120;5.252;2022-10-19T13:14:42;1416.87;;;932.27;;
17133;SDS011;8682;52.120;5.252;2022-10-19T13:17:10;1196.33;;;887.17;;
17133;SDS011;8682;52.120;5.252;2022-10-19T13:22:40;1208.33;;;819.90;;
17133;SDS011;8682;52.120;5.252;2022-10-19T13:25:25;1202.83;;;912.03;;
17133;SDS011;8682;52.120;5.252;2022-10-19T13:27:56;1226.47;;;949.47;;
17133;SDS011;8682;52.120;5.252;2022-10-19T13:36:04;1216.80;;;902.60;;
17133;SDS011;8682;52.120;5.252;2022-10-19T13:38:33;1156.67;;;885.77;;
17133;SDS011;8682;52.120;5.252;2022-10-19T13:41:03;975.57;;;871.67;;
17133;SDS011;8682;52.120;5.252;2022-10-19T13:43:31;991.70;;;883.73;;
17133;SDS011;8682;52.120;5.252;2022-10-19T13:46:02;1017.23;;;824.77;;
17133;SDS011;8682;52.120;5.252;2022-10-19T13:48:32;926.93;;;829.90;;
17133;SDS011;8682;52.120;5.252;2022-10-19T13:51:04;933.40;;;832.87;;
17133;SDS011;8682;52.120;5.252;2022-10-19T13:53:38;1268.33;;;935.30;;
17133;SDS011;8682;52.120;5.252;2022-10-19T13:56:13;1017.27;;;885.07;;
17133;SDS011;8682;52.120;5.252;2022-10-19T13:59:02;951.53;;;813.27;;
17133;SDS011;8682;52.120;5.252;2022-10-19T14:01:37;1005.17;;;888.23;;
17133;SDS011;8682;52.120;5.252;2022-10-19T14:04:10;938.87;;;841.30;;
17133;SDS011;8682;52.120;5.252;2022-10-19T14:06:41;1049.23;;;851.93;;
17133;SDS011;8682;52.120;5.252;2022-10-19T14:09:20;972.80;;;830.73;;
17133;SDS011;8682;52.120;5.252;2022-10-19T14:11:51;1075.53;;;890.30;;
17133;SDS011;8682;52.120;5.252;2022-10-19T14:14:19;1087.20;;;934.80;;
17133;SDS011;8682;52.120;5.252;2022-10-19T14:16:48;926.50;;;822.97;;
17133;SDS011;8682;52.120;5.252;2022-10-19T14:19:20;1123.73;;;873.87;;
17133;SDS011;8682;52.120;5.252;2022-10-19T14:21:51;1059.23;;;918.23;;
17133;SDS011;8682;52.120;5.252;2022-10-19T14:24:20;1119.20;;;905.27;;
17133;SDS011;8682;52.120;5.252;2022-10-19T14:26:47;1172.47;;;976.17;;
17133;SDS011;8682;52.120;5.252;2022-10-19T14:29:14;1167.63;;;948.03;;